createdAt,value
2019-04-30T00:01:00.673Z,7.33
2019-04-30T00:03:31.902Z,7.18
2019-04-30T00:05:58.606Z,7.08
2019-04-30T00:08:29.839Z,7.07
2019-04-30T00:10:55.534Z,6.97
2019-04-30T00:13:22.458Z,6.92
2019-04-30T00:15:52.700Z,6.91
2019-04-30T00:18:17.833Z,6.87
2019-04-30T00:20:45.359Z,6.71
2019-04-30T00:23:13.120Z,6.69
2019-04-30T00:25:39.781Z,6.55
2019-04-30T00:28:08.766Z,6.44
2019-04-30T00:30:39.338Z,6.45
2019-04-30T00:33:05.803Z,6.52
2019-04-30T00:35:35.408Z,6.45
2019-04-30T00:38:01.988Z,6.33
2019-04-30T00:40:30.218Z,6.33
2019-04-30T00:43:00.116Z,6.28
2019-04-30T00:45:39.958Z,6.17
2019-04-30T00:48:27.916Z,6.12
2019-04-30T00:50:52.085Z,6.03
2019-04-30T00:53:18.975Z,6.21
2019-04-30T00:55:48.457Z,6.16
2019-04-30T00:58:17.732Z,6.08
2019-04-30T01:00:52.314Z,5.93
2019-04-30T01:03:22.688Z,5.82
2019-04-30T01:05:49.350Z,5.64
2019-04-30T01:08:16.132Z,5.64
2019-04-30T01:10:42.822Z,5.51
2019-04-30T01:13:11.938Z,5.39
2019-04-30T01:15:39.082Z,5.52
2019-04-30T01:18:05.959Z,5.56
2019-04-30T01:20:33.018Z,5.67
2019-04-30T01:23:03.207Z,5.62
2019-04-30T01:25:28.878Z,5.48
2019-04-30T01:27:58.525Z,5.55
2019-04-30T01:30:25.587Z,5.47
2019-04-30T01:32:56.775Z,5.38
2019-04-30T01:35:23.898Z,5.39
2019-04-30T01:37:49.853Z,5.48
2019-04-30T01:40:18.804Z,5.52
2019-04-30T01:42:48.550Z,5.36
2019-04-30T01:45:14.516Z,5.04
2019-04-30T01:47:41.303Z,4.93
2019-04-30T01:50:09.253Z,4.98
2019-04-30T01:52:54.274Z,4.85
2019-04-30T01:55:33.646Z,4.86
2019-04-30T01:58:25.982Z,5.04
2019-04-30T02:01:03.194Z,5.09
2019-04-30T02:03:29.848Z,5.13
2019-04-30T02:05:56.914Z,5.12
2019-04-30T02:08:23.669Z,5.17
2019-04-30T02:10:51.411Z,5.28
2019-04-30T02:13:18.882Z,5.34
2019-04-30T02:15:45.778Z,5.39
2019-04-30T02:18:12.489Z,5.46
2019-04-30T02:20:39.295Z,5.33
2019-04-30T02:23:09.684Z,5.18
2019-04-30T02:25:36.809Z,5.18
2019-04-30T02:28:03.493Z,5.10
2019-04-30T02:30:31.032Z,5.10
2019-04-30T02:33:00.561Z,5.18
2019-04-30T02:35:43.627Z,5.00
2019-04-30T02:38:20.120Z,4.97
2019-04-30T02:40:46.575Z,5.01
2019-04-30T02:43:13.766Z,5.00
2019-04-30T02:45:41.280Z,4.88
2019-04-30T02:48:11.489Z,4.82
2019-04-30T02:50:39.353Z,4.60
2019-04-30T02:53:29.266Z,4.58
2019-04-30T02:55:56.019Z,4.58
2019-04-30T02:58:22.957Z,4.83
2019-04-30T03:00:49.724Z,4.79
2019-04-30T03:03:16.406Z,4.77
2019-04-30T03:05:43.280Z,4.68
2019-04-30T03:08:09.966Z,4.82
2019-04-30T03:10:36.662Z,4.98
2019-04-30T03:13:03.499Z,4.93
2019-04-30T03:15:30.273Z,4.97
2019-04-30T03:18:13.029Z,4.90
2019-04-30T03:20:53.916Z,4.87
2019-04-30T03:23:20.714Z,4.79
2019-04-30T03:25:49.983Z,4.71
2019-04-30T03:28:15.974Z,5.04
2019-04-30T03:30:42.850Z,4.77
2019-04-30T03:33:12.854Z,4.58
2019-04-30T03:35:46.588Z,4.58
2019-04-30T03:38:09.452Z,4.56
2019-04-30T03:40:35.626Z,4.66
2019-04-30T03:43:03.627Z,4.82
2019-04-30T03:45:30.525Z,4.50
2019-04-30T03:47:59.615Z,4.49
2019-04-30T03:50:25.892Z,4.31
2019-04-30T03:52:52.612Z,4.23
2019-04-30T03:55:20.605Z,4.29
2019-04-30T03:57:51.679Z,4.33
2019-04-30T04:00:33.583Z,4.28
2019-04-30T04:03:00.282Z,4.19
2019-04-30T04:05:52.873Z,4.14
2019-04-30T04:08:43.236Z,4.06
2019-04-30T04:11:16.381Z,4.00
2019-04-30T04:13:43.078Z,3.92
2019-04-30T04:16:09.943Z,3.93
2019-04-30T04:18:36.885Z,3.81
2019-04-30T04:21:11.321Z,3.70
2019-04-30T04:23:32.980Z,3.69
2019-04-30T04:25:59.777Z,3.57
2019-04-30T04:28:29.754Z,3.56
2019-04-30T04:30:56.329Z,3.45
2019-04-30T04:33:23.022Z,3.43
2019-04-30T04:35:50.152Z,3.33
2019-04-30T04:38:16.921Z,3.26
2019-04-30T04:40:43.688Z,3.16
2019-04-30T04:43:10.616Z,3.15
2019-04-30T04:45:40.503Z,3.10
2019-04-30T04:48:06.157Z,3.08
2019-04-30T04:50:32.925Z,3.06
2019-04-30T04:52:59.716Z,3.25
2019-04-30T04:55:26.404Z,3.18
2019-04-30T04:57:53.179Z,3.46
2019-04-30T05:00:20.176Z,3.88
2019-04-30T05:02:55.923Z,3.64
2019-04-30T05:05:22.756Z,3.94
2019-04-30T05:07:49.441Z,3.81
2019-04-30T05:10:16.233Z,4.46
2019-04-30T05:12:43.003Z,4.14
2019-04-30T05:15:10.462Z,4.52
2019-04-30T05:17:39.334Z,3.96
2019-04-30T05:20:06.870Z,3.94
2019-04-30T05:22:33.654Z,3.84
2019-04-30T05:25:00.350Z,3.90
2019-04-30T05:27:28.044Z,4.01
2019-04-30T05:29:54.733Z,4.08
2019-04-30T05:32:21.400Z,4.13
2019-04-30T05:34:50.001Z,4.15
2019-04-30T05:37:18.391Z,4.32
2019-04-30T05:39:45.286Z,4.38
2019-04-30T05:42:12.069Z,4.40
2019-04-30T05:44:39.584Z,4.46
2019-04-30T05:47:06.381Z,4.69
2019-04-30T05:49:33.157Z,4.78
2019-04-30T05:51:59.860Z,4.85
2019-04-30T05:54:26.681Z,4.90
2019-04-30T05:56:53.466Z,5.12
2019-04-30T05:59:20.690Z,5.10
2019-04-30T06:01:48.672Z,5.10
2019-04-30T06:04:19.388Z,5.17
2019-04-30T06:06:46.157Z,5.20
2019-04-30T06:09:31.011Z,5.34
2019-04-30T06:12:07.799Z,5.38
2019-04-30T06:14:48.803Z,5.57
2019-04-30T06:17:19.559Z,5.68
2019-04-30T06:19:46.110Z,5.87
2019-04-30T06:22:12.887Z,5.96
2019-04-30T06:24:39.861Z,6.21
2019-04-30T06:27:06.751Z,6.39
2019-04-30T06:29:33.961Z,6.38
2019-04-30T06:32:00.877Z,6.47
2019-04-30T06:34:29.464Z,6.62
2019-04-30T06:36:57.118Z,6.65
2019-04-30T06:39:24.064Z,6.77
2019-04-30T06:41:51.538Z,7.22
2019-04-30T06:44:19.529Z,7.08
2019-04-30T06:46:48.653Z,7.14
2019-04-30T06:49:15.406Z,7.21
2019-04-30T06:51:42.202Z,7.30
2019-04-30T06:54:11.083Z,7.44
2019-04-30T06:56:38.758Z,7.49
2019-04-30T06:59:05.632Z,7.58
2019-04-30T07:01:32.388Z,7.83
2019-04-30T07:04:01.012Z,7.86
2019-04-30T07:06:32.324Z,7.99
2019-04-30T07:09:21.926Z,8.21
2019-04-30T07:11:59.274Z,8.32
2019-04-30T07:14:26.305Z,8.56
2019-04-30T07:16:53.068Z,8.80
2019-04-30T07:19:31.865Z,8.94
2019-04-30T07:21:49.644Z,9.14
2019-04-30T07:24:16.542Z,9.33
2019-04-30T07:26:43.333Z,9.50
2019-04-30T07:29:10.119Z,9.60
2019-04-30T07:31:39.130Z,9.74
2019-04-30T07:34:05.560Z,9.93
2019-04-30T07:36:45.310Z,10.03
2019-04-30T07:39:01.037Z,10.23
2019-04-30T07:41:30.884Z,10.43
2019-04-30T07:43:56.863Z,10.61
2019-04-30T07:46:23.527Z,10.61
2019-04-30T07:53:06.364Z,11.61
2019-04-30T07:55:31.671Z,11.96
2019-04-30T07:57:59.140Z,12.14
2019-04-30T08:00:26.177Z,12.25
2019-04-30T08:03:04.861Z,12.82
2019-04-30T08:05:40.142Z,12.92
2019-04-30T08:08:17.709Z,12.75
2019-04-30T08:10:34.978Z,12.83
2019-04-30T08:13:10.065Z,12.84
2019-04-30T08:15:30.405Z,12.85
2019-04-30T08:18:03.658Z,12.98
2019-04-30T08:20:26.056Z,12.97
2019-04-30T08:22:52.734Z,13.24
2019-04-30T08:25:21.909Z,13.20
2019-04-30T08:27:49.255Z,13.31
2019-04-30T08:30:23.949Z,13.62
2019-04-30T08:32:44.901Z,13.68
2019-04-30T08:35:12.478Z,13.70
2019-04-30T08:37:39.162Z,13.74
2019-04-30T08:40:06.158Z,13.89
2019-04-30T08:42:34.273Z,14.04
2019-04-30T08:45:01.616Z,14.08
2019-04-30T08:47:29.136Z,14.08
2019-04-30T08:49:55.873Z,14.25
2019-04-30T08:52:22.737Z,14.27
2019-04-30T08:54:49.713Z,14.33
2019-04-30T08:57:18.888Z,14.47
2019-04-30T08:59:45.163Z,14.47
2019-04-30T09:02:15.846Z,14.59
2019-04-30T09:04:40.405Z,14.64
2019-04-30T09:07:10.128Z,14.76
2019-04-30T09:09:35.801Z,15.07
2019-04-30T09:12:02.482Z,15.14
2019-04-30T09:14:29.867Z,15.28
2019-04-30T09:16:56.758Z,15.36
2019-04-30T09:19:23.470Z,15.49
2019-04-30T09:21:51.202Z,15.41
2019-04-30T09:24:19.119Z,15.80
2019-04-30T09:26:49.090Z,15.76
2019-04-30T09:29:15.494Z,15.59
2019-04-30T09:31:42.288Z,15.57
2019-04-30T09:34:17.077Z,15.69
2019-04-30T09:36:39.168Z,15.80
2019-04-30T09:39:06.169Z,15.78
2019-04-30T09:41:33.533Z,15.99
2019-04-30T09:44:00.571Z,15.68
2019-04-30T09:46:29.827Z,15.83
2019-04-30T09:48:56.027Z,15.97
2019-04-30T09:51:24.692Z,16.04
2019-04-30T09:53:59.237Z,15.85
2019-04-30T09:56:20.955Z,16.00
2019-04-30T09:58:49.256Z,16.18
2019-04-30T10:01:15.993Z,16.33
2019-04-30T10:03:43.196Z,16.47
2019-04-30T10:06:10.165Z,16.76
2019-04-30T10:08:47.889Z,16.71
2019-04-30T10:11:28.086Z,16.84
2019-04-30T10:13:54.772Z,16.99
2019-04-30T10:16:31.489Z,17.05
2019-04-30T10:18:59.248Z,17.13
2019-04-30T10:21:28.913Z,17.23
2019-04-30T10:24:10.280Z,17.14
2019-04-30T10:26:24.487Z,17.33
2019-04-30T10:28:51.677Z,17.80
2019-04-30T10:31:18.771Z,17.82
2019-04-30T10:33:48.548Z,17.75
2019-04-30T10:36:15.445Z,17.62
2019-04-30T10:38:42.424Z,17.54
2019-04-30T10:41:09.206Z,17.50
2019-04-30T10:43:35.876Z,17.54
2019-04-30T10:46:02.789Z,17.44
2019-04-30T10:48:29.594Z,17.72
2019-04-30T10:50:56.368Z,18.01
2019-04-30T10:53:23.084Z,18.08
2019-04-30T10:55:49.860Z,18.13
2019-04-30T10:58:16.553Z,18.22
2019-04-30T11:00:43.849Z,18.25
2019-04-30T11:03:19.169Z,18.43
2019-04-30T11:05:41.266Z,18.31
2019-04-30T11:08:08.294Z,18.42
2019-04-30T11:10:35.070Z,18.73
2019-04-30T11:13:01.998Z,18.45
2019-04-30T11:15:29.322Z,18.52
2019-04-30T11:17:56.195Z,18.54
2019-04-30T11:20:23.448Z,18.56
2019-04-30T11:22:50.702Z,18.53
2019-04-30T11:25:19.604Z,18.73
2019-04-30T11:27:46.770Z,18.76
2019-04-30T11:30:23.333Z,19.03
2019-04-30T11:32:43.434Z,18.98
2019-04-30T11:35:10.770Z,19.17
2019-04-30T11:37:37.654Z,19.27
2019-04-30T11:40:04.601Z,19.05
2019-04-30T11:42:32.381Z,19.14
2019-04-30T11:44:59.140Z,19.19
2019-04-30T11:47:30.252Z,19.25
2019-04-30T11:49:57.049Z,19.46
2019-04-30T11:52:25.147Z,19.63
2019-04-30T11:54:54.468Z,19.35
2019-04-30T11:57:20.830Z,19.32
2019-04-30T11:59:47.980Z,19.45
2019-04-30T12:02:21.199Z,19.57
2019-04-30T12:04:49.449Z,19.21
2019-04-30T12:07:24.220Z,19.27
2019-04-30T12:09:59.567Z,19.19
2019-04-30T12:12:26.258Z,19.22
2019-04-30T12:14:52.922Z,19.21
2019-04-30T12:17:19.853Z,19.38
2019-04-30T12:19:48.847Z,19.29
2019-04-30T12:22:16.062Z,19.27
2019-04-30T12:24:42.871Z,19.34
2019-04-30T12:27:09.637Z,19.46
2019-04-30T12:29:36.389Z,19.43
2019-04-30T12:32:04.368Z,19.59
2019-04-30T12:34:31.087Z,19.84
2019-04-30T12:36:59.649Z,19.56
2019-04-30T12:39:29.798Z,19.83
2019-04-30T12:41:55.587Z,19.99
2019-04-30T12:44:22.504Z,20.11
2019-04-30T12:46:49.213Z,20.16
2019-04-30T12:49:15.906Z,20.14
2019-04-30T12:52:02.403Z,19.65
2019-04-30T12:54:36.986Z,19.63
2019-04-30T12:57:15.962Z,20.14
2019-04-30T12:59:42.691Z,19.93
2019-04-30T13:02:09.466Z,19.82
2019-04-30T13:04:36.361Z,19.77
2019-04-30T13:07:03.820Z,19.70
2019-04-30T13:09:31.804Z,19.94
2019-04-30T13:12:00.579Z,20.10
2019-04-30T13:14:29.751Z,20.02
2019-04-30T13:16:56.113Z,20.25
2019-04-30T13:19:22.803Z,20.56
2019-04-30T13:21:49.590Z,20.27
2019-04-30T13:24:16.348Z,20.32
2019-04-30T13:26:43.055Z,19.86
2019-04-30T13:29:15.801Z,20.19
2019-04-30T13:31:42.504Z,20.45
2019-04-30T13:34:29.852Z,20.40
2019-04-30T13:36:56.231Z,20.51
2019-04-30T13:39:29.295Z,20.57
2019-04-30T13:42:00.233Z,20.63
2019-04-30T13:44:35.793Z,20.74
2019-04-30T13:47:03.585Z,20.61
2019-04-30T13:49:30.331Z,20.96
2019-04-30T13:51:58.069Z,21.29
2019-04-30T13:54:24.766Z,21.32
2019-04-30T13:56:51.553Z,20.86
2019-04-30T13:59:18.465Z,20.73
2019-04-30T14:01:45.342Z,20.68
2019-04-30T14:04:33.925Z,20.71
2019-04-30T14:07:10.622Z,20.79
2019-04-30T14:09:37.404Z,21.03
2019-04-30T14:12:04.197Z,20.53
2019-04-30T14:14:30.893Z,20.47
2019-04-30T14:16:58.673Z,20.61
2019-04-30T14:19:26.345Z,20.83
2019-04-30T14:21:53.027Z,20.37
2019-04-30T14:24:19.819Z,20.38
2019-04-30T14:26:46.603Z,20.52
2019-04-30T14:29:13.407Z,20.10
2019-04-30T14:31:40.158Z,19.31
2019-04-30T14:34:06.982Z,19.25
2019-04-30T14:36:33.673Z,18.97
2019-04-30T14:39:13.752Z,18.61
2019-04-30T14:41:32.440Z,18.24
2019-04-30T14:44:09.739Z,18.11
2019-04-30T14:46:47.081Z,17.60
2019-04-30T14:49:40.702Z,17.51
2019-04-30T14:52:09.368Z,17.66
2019-04-30T14:54:58.778Z,17.74
2019-04-30T14:57:51.068Z,17.73
2019-04-30T15:00:39.582Z,17.39
2019-04-30T15:03:09.499Z,17.35
2019-04-30T15:05:40.615Z,17.41
2019-04-30T15:08:05.168Z,17.25
2019-04-30T15:10:31.955Z,17.29
2019-04-30T15:13:00.206Z,17.45
2019-04-30T15:15:29.228Z,17.34
2019-04-30T15:17:56.036Z,17.47
2019-04-30T15:20:22.822Z,17.32
2019-04-30T15:22:59.774Z,17.26
2019-04-30T15:25:34.070Z,17.33
2019-04-30T15:27:55.057Z,17.22
2019-04-30T15:30:22.023Z,17.20
2019-04-30T15:32:51.202Z,17.17
2019-04-30T15:35:19.629Z,16.88
2019-04-30T15:37:48.832Z,16.78
2019-04-30T15:40:15.738Z,16.69
2019-04-30T15:42:44.529Z,16.68
2019-04-30T15:45:12.652Z,16.60
2019-04-30T15:47:39.415Z,16.57
2019-04-30T15:50:06.213Z,16.53
2019-04-30T15:52:32.990Z,16.53
2019-04-30T15:54:59.770Z,16.43
2019-04-30T15:57:26.552Z,16.21
2019-04-30T15:59:53.255Z,16.34
2019-04-30T16:02:53.489Z,16.38
2019-04-30T16:05:29.464Z,16.58
2019-04-30T16:08:05.165Z,16.72
2019-04-30T16:11:08.194Z,16.81
2019-04-30T16:13:54.749Z,16.69
2019-04-30T16:16:22.938Z,16.51
2019-04-30T16:18:49.943Z,16.52
2019-04-30T16:21:16.724Z,16.51
2019-04-30T16:23:43.400Z,16.44
2019-04-30T16:26:10.162Z,16.50
2019-04-30T16:28:38.978Z,16.26
2019-04-30T16:31:05.786Z,16.27
2019-04-30T16:33:32.563Z,16.31
2019-04-30T16:36:01.405Z,16.34
2019-04-30T16:38:28.984Z,16.06
2019-04-30T16:40:55.869Z,16.03
2019-04-30T16:43:22.680Z,16.02
2019-04-30T16:45:49.752Z,15.92
2019-04-30T16:48:19.287Z,15.84
2019-04-30T16:50:46.060Z,15.92
2019-04-30T16:53:12.810Z,16.18
2019-04-30T16:55:39.582Z,16.13
2019-04-30T16:58:06.280Z,16.12
2019-04-30T17:00:33.568Z,16.08
2019-04-30T17:03:05.017Z,15.96
2019-04-30T17:05:40.196Z,15.86
2019-04-30T17:08:16.213Z,15.71
2019-04-30T17:10:50.542Z,15.68
2019-04-30T17:13:23.224Z,15.56
2019-04-30T17:15:52.045Z,15.25
2019-04-30T17:18:19.168Z,14.92
2019-04-30T17:20:49.262Z,14.90
2019-04-30T17:23:19.296Z,14.72
2019-04-30T17:25:49.250Z,14.68
2019-04-30T17:28:21.004Z,14.59
2019-04-30T17:30:49.281Z,14.46
2019-04-30T17:33:17.365Z,14.39
2019-04-30T17:35:45.498Z,14.37
2019-04-30T17:38:13.523Z,14.45
2019-04-30T17:40:41.542Z,14.28
2019-04-30T17:43:08.329Z,14.40
2019-04-30T17:45:35.116Z,14.34
2019-04-30T17:48:01.961Z,14.20
2019-04-30T17:50:29.569Z,14.04
2019-04-30T17:52:56.311Z,14.01
2019-04-30T17:55:23.035Z,14.08
2019-04-30T17:57:49.811Z,13.90
2019-04-30T18:00:21.631Z,13.67
2019-04-30T18:02:45.544Z,13.66
2019-04-30T18:05:12.789Z,13.48
2019-04-30T18:07:39.979Z,13.29
2019-04-30T18:10:09.172Z,13.19
2019-04-30T18:12:36.082Z,13.09
2019-04-30T18:15:04.126Z,13.01
2019-04-30T18:17:31.593Z,12.74
2019-04-30T18:20:13.557Z,13.27
2019-04-30T18:22:59.969Z,13.00
2019-04-30T18:25:40.225Z,13.00
2019-04-30T18:28:09.166Z,12.92
2019-04-30T18:30:38.969Z,12.94
2019-04-30T18:33:06.088Z,12.92
2019-04-30T18:35:34.083Z,12.97
2019-04-30T18:38:01.243Z,12.75
2019-04-30T18:40:29.603Z,12.91
2019-04-30T18:42:56.493Z,12.79
2019-04-30T18:45:23.495Z,12.69
2019-04-30T18:47:50.207Z,12.56
2019-04-30T18:50:18.939Z,12.45
2019-04-30T18:52:50.330Z,12.56
2019-04-30T18:55:15.629Z,12.51
2019-04-30T18:57:42.433Z,12.70
2019-04-30T19:00:09.977Z,12.49
2019-04-30T19:02:38.351Z,12.43
2019-04-30T19:05:09.525Z,12.16
2019-04-30T19:11:23.341Z,12.07
2019-04-30T19:14:13.881Z,12.14
2019-04-30T19:17:02.905Z,11.87
2019-04-30T19:19:42.463Z,11.70
2019-04-30T19:22:09.606Z,11.61
2019-04-30T19:24:36.682Z,11.54
2019-04-30T19:27:03.533Z,11.82
2019-04-30T19:29:30.202Z,11.71
2019-04-30T19:31:57.026Z,11.74
2019-04-30T19:34:23.728Z,11.50
2019-04-30T19:36:50.630Z,11.67
2019-04-30T19:39:19.499Z,11.58
2019-04-30T19:41:46.546Z,11.39
2019-04-30T19:44:13.235Z,11.23
2019-04-30T19:46:41.439Z,11.30
2019-04-30T19:49:09.848Z,11.04
2019-04-30T19:51:36.728Z,11.08
2019-04-30T19:54:03.710Z,11.00
2019-04-30T19:56:32.862Z,11.04
2019-04-30T19:59:02.915Z,10.78
2019-04-30T20:01:28.703Z,10.63
2019-04-30T20:03:55.521Z,10.57
2019-04-30T20:06:22.326Z,10.57
2019-04-30T20:08:49.315Z,10.45
2019-04-30T20:11:16.116Z,10.28
2019-04-30T20:13:42.904Z,10.28
2019-04-30T20:16:10.143Z,10.23
2019-04-30T20:18:38.995Z,10.14
2019-04-30T20:21:09.938Z,10.06
2019-04-30T20:23:37.465Z,9.94
2019-04-30T20:26:04.241Z,9.94
2019-04-30T20:28:39.124Z,9.95
2019-04-30T20:31:00.061Z,9.90
2019-04-30T20:33:28.895Z,9.92
2019-04-30T20:35:55.305Z,9.77
2019-04-30T20:38:32.268Z,9.82
2019-04-30T20:41:02.796Z,9.87
2019-04-30T20:43:28.535Z,9.85
2019-04-30T20:45:55.422Z,9.94
2019-04-30T20:48:22.185Z,10.10
2019-04-30T20:50:48.865Z,10.10
2019-04-30T20:53:19.674Z,9.81
2019-04-30T20:55:46.258Z,9.85
2019-04-30T20:58:13.693Z,10.06
2019-04-30T21:00:40.461Z,10.06
2019-04-30T21:03:09.553Z,10.02
2019-04-30T21:05:36.193Z,9.75
2019-04-30T21:08:04.057Z,9.70
2019-04-30T21:10:30.725Z,9.79
2019-04-30T21:12:57.392Z,9.69
2019-04-30T21:15:24.198Z,9.59
2019-04-30T21:17:50.867Z,9.56
2019-04-30T21:20:19.361Z,9.75
2019-04-30T21:22:46.366Z,9.65
2019-04-30T21:25:13.815Z,9.57
2019-04-30T21:27:40.605Z,9.78
2019-04-30T21:30:07.522Z,9.59
2019-04-30T21:32:52.514Z,9.48
2019-04-30T21:35:43.852Z,9.41
2019-04-30T21:38:10.642Z,9.47
2019-04-30T21:40:39.309Z,9.42
2019-04-30T21:43:06.061Z,9.46
2019-04-30T21:45:32.745Z,9.46
2019-04-30T21:48:01.502Z,9.41
2019-04-30T21:50:29.637Z,9.44
2019-04-30T21:52:56.603Z,9.41
2019-04-30T21:55:23.262Z,9.38
2019-04-30T21:57:49.948Z,9.33
2019-04-30T22:00:25.023Z,9.35
2019-04-30T22:02:53.703Z,9.31
2019-04-30T22:05:20.710Z,9.34
2019-04-30T22:07:48.617Z,9.28
2019-04-30T22:10:15.765Z,9.26
2019-04-30T22:12:42.450Z,9.26
2019-04-30T22:15:12.813Z,9.21
2019-04-30T22:17:39.493Z,9.16
2019-04-30T22:20:07.863Z,9.15
2019-04-30T22:22:35.066Z,9.11
2019-04-30T22:25:02.009Z,9.12
2019-04-30T22:27:29.665Z,9.18
2019-04-30T22:29:56.372Z,9.19
2019-04-30T22:32:24.529Z,9.30
2019-04-30T22:34:53.101Z,9.18
2019-04-30T22:37:20.110Z,9.21
2019-04-30T22:39:52.949Z,9.21
2019-04-30T22:42:39.718Z,9.20
2019-04-30T22:45:27.049Z,9.18
2019-04-30T22:47:53.831Z,9.19
2019-04-30T22:50:20.603Z,9.19
2019-04-30T22:52:47.289Z,9.17
2019-04-30T22:55:14.163Z,9.26
2019-04-30T22:57:40.872Z,9.15
2019-04-30T23:00:11.045Z,9.12
2019-04-30T23:03:05.060Z,9.19
2019-04-30T23:08:14.566Z,9.18
2019-04-30T23:10:41.242Z,9.11
2019-04-30T23:13:08.028Z,9.12
2019-04-30T23:15:35.010Z,9.17
2019-04-30T23:18:01.801Z,9.19
2019-04-30T23:20:28.886Z,9.12
2019-04-30T23:22:55.575Z,9.19
2019-04-30T23:25:22.264Z,9.16
2019-04-30T23:27:48.928Z,9.09
2019-04-30T23:30:16.361Z,9.03
2019-04-30T23:32:43.017Z,9.07
2019-04-30T23:35:10.116Z,9.03
2019-04-30T23:37:37.510Z,8.99
2019-04-30T23:40:27.017Z,8.99
2019-04-30T23:42:54.156Z,9.08
2019-04-30T23:45:21.063Z,9.07
2019-04-30T23:47:47.927Z,9.03
2019-04-30T23:50:14.748Z,8.97
2019-04-30T23:52:41.416Z,8.99
2019-04-30T23:55:08.193Z,8.99
2019-04-30T23:57:34.974Z,9.02
